sensor_id;sensor_type;location;lat;lon;timestamp;temperature;humidity
52575;DHT22;38468;48.114;-1.684;2022-12-18T00:01:01;-3275.70;78.30
52575;DHT22;38468;48.114;-1.684;2022-12-18T00:03:06;-3275.70;78.20
52575;DHT22;38468;48.114;-1.684;2022-12-18T00:05:07;-3275.70;78.40
52575;DHT22;38468;48.114;-1.684;2022-12-18T00:07:07;-3275.70;78.20
52575;DHT22;38468;48.114;-1.684;2022-12-18T00:09:09;-3275.60;78.30
52575;DHT22;38468;48.114;-1.684;2022-12-18T00:11:29;-3275.60;78.40
52575;DHT22;38468;48.114;-1.684;2022-12-18T00:13:30;-3275.70;78.30
52575;DHT22;38468;48.114;-1.684;2022-12-18T00:15:34;-3275.70;78.20
52575;DHT22;38468;48.114;-1.684;2022-12-18T00:17:35;-3275.60;78.10
52575;DHT22;38468;48.114;-1.684;2022-12-18T00:19:36;-3275.60;78.40
52575;DHT22;38468;48.114;-1.684;2022-12-18T00:21:36;-3275.60;78.40
52575;DHT22;38468;48.114;-1.684;2022-12-18T00:23:38;-3275.70;78.10
52575;DHT22;38468;48.114;-1.684;2022-12-18T00:25:39;-3275.80;78.10
52575;DHT22;38468;48.114;-1.684;2022-12-18T00:27:39;-3275.70;77.90
52575;DHT22;38468;48.114;-1.684;2022-12-18T00:29:40;-3275.70;78.10
52575;DHT22;38468;48.114;-1.684;2022-12-18T00:31:42;-3275.60;78.40
52575;DHT22;38468;48.114;-1.684;2022-12-18T00:33:42;-3275.60;78.30
52575;DHT22;38468;48.114;-1.684;2022-12-18T00:35:43;-3275.60;78.30
52575;DHT22;38468;48.114;-1.684;2022-12-18T00:37:44;-3275.50;78.50
52575;DHT22;38468;48.114;-1.684;2022-12-18T00:39:45;-3275.30;79.20
52575;DHT22;38468;48.114;-1.684;2022-12-18T00:41:45;-3275.40;79.00
52575;DHT22;38468;48.114;-1.684;2022-12-18T00:44:06;-3275.40;78.90
52575;DHT22;38468;48.114;-1.684;2022-12-18T00:46:07;-3275.50;78.90
52575;DHT22;38468;48.114;-1.684;2022-12-18T00:48:08;-3275.50;78.60
52575;DHT22;38468;48.114;-1.684;2022-12-18T00:50:09;-3275.60;78.40
52575;DHT22;38468;48.114;-1.684;2022-12-18T00:52:09;-3275.60;78.30
52575;DHT22;38468;48.114;-1.684;2022-12-18T00:54:10;-3275.70;78.00
52575;DHT22;38468;48.114;-1.684;2022-12-18T00:56:11;-3275.70;78.10
52575;DHT22;38468;48.114;-1.684;2022-12-18T00:58:14;-3275.60;78.30
52575;DHT22;38468;48.114;-1.684;2022-12-18T01:00:15;-3275.70;78.10
52575;DHT22;38468;48.114;-1.684;2022-12-18T01:02:15;-3275.60;78.20
52575;DHT22;38468;48.114;-1.684;2022-12-18T01:04:16;-3275.40;78.70
52575;DHT22;38468;48.114;-1.684;2022-12-18T01:06:17;-3275.50;78.60
52575;DHT22;38468;48.114;-1.684;2022-12-18T01:08:18;-3275.50;78.60
52575;DHT22;38468;48.114;-1.684;2022-12-18T01:10:19;-3275.50;78.50
52575;DHT22;38468;48.114;-1.684;2022-12-18T01:12:19;-3275.50;78.50
52575;DHT22;38468;48.114;-1.684;2022-12-18T01:14:20;-3275.50;78.50
52575;DHT22;38468;48.114;-1.684;2022-12-18T01:16:22;-3275.60;78.20
52575;DHT22;38468;48.114;-1.684;2022-12-18T01:18:23;-3275.60;78.10
52575;DHT22;38468;48.114;-1.684;2022-12-18T01:20:23;-3275.60;78.20
52575;DHT22;38468;48.114;-1.684;2022-12-18T01:22:24;-3275.60;78.10
52575;DHT22;38468;48.114;-1.684;2022-12-18T01:24:25;-3275.60;78.20
52575;DHT22;38468;48.114;-1.684;2022-12-18T01:26:26;-3275.50;78.40
52575;DHT22;38468;48.114;-1.684;2022-12-18T01:28:29;-3275.40;78.60
52575;DHT22;38468;48.114;-1.684;2022-12-18T01:30:30;-3275.40;78.60
52575;DHT22;38468;48.114;-1.684;2022-12-18T01:32:31;-3275.50;78.60
52575;DHT22;38468;48.114;-1.684;2022-12-18T01:34:32;-3275.60;78.30
52575;DHT22;38468;48.114;-1.684;2022-12-18T01:36:36;-3275.60;77.90
52575;DHT22;38468;48.114;-1.684;2022-12-18T01:38:37;-3275.70;78.00
52575;DHT22;38468;48.114;-1.684;2022-12-18T01:40:38;-3275.60;77.90
52575;DHT22;38468;48.114;-1.684;2022-12-18T01:42:38;-3275.50;77.90
52575;DHT22;38468;48.114;-1.684;2022-12-18T01:46:58;-3275.40;78.20
52575;DHT22;38468;48.114;-1.684;2022-12-18T01:49:00;-3275.40;78.40
52575;DHT22;38468;48.114;-1.684;2022-12-18T01:51:01;-3275.40;78.60
52575;DHT22;38468;48.114;-1.684;2022-12-18T01:53:22;-3275.40;78.70
52575;DHT22;38468;48.114;-1.684;2022-12-18T01:55:26;-3275.30;78.80
52575;DHT22;38468;48.114;-1.684;2022-12-18T01:57:29;-3275.40;78.50
52575;DHT22;38468;48.114;-1.684;2022-12-18T01:59:31;-3275.40;78.70
52575;DHT22;38468;48.114;-1.684;2022-12-18T02:01:33;-3275.30;79.00
52575;DHT22;38468;48.114;-1.684;2022-12-18T02:03:34;-3275.50;78.90
52575;DHT22;38468;48.114;-1.684;2022-12-18T02:05:46;-3275.40;78.60
52575;DHT22;38468;48.114;-1.684;2022-12-18T02:12:05;-3275.30;78.60
52575;DHT22;38468;48.114;-1.684;2022-12-18T02:14:44;-3275.20;79.30
52575;DHT22;38468;48.114;-1.684;2022-12-18T02:21:48;-3275.20;79.50
52575;DHT22;38468;48.114;-1.684;2022-12-18T02:26:47;-3275.30;79.50
52575;DHT22;38468;48.114;-1.684;2022-12-18T02:28:51;-3275.30;79.20
52575;DHT22;38468;48.114;-1.684;2022-12-18T02:30:53;-3275.20;79.40
52575;DHT22;38468;48.114;-1.684;2022-12-18T02:32:57;-3275.30;79.30
52575;DHT22;38468;48.114;-1.684;2022-12-18T02:35:01;-3275.30;79.20
52575;DHT22;38468;48.114;-1.684;2022-12-18T02:37:05;-3275.40;79.00
52575;DHT22;38468;48.114;-1.684;2022-12-18T02:39:09;-3275.30;78.80
52575;DHT22;38468;48.114;-1.684;2022-12-18T02:41:11;-3275.30;79.00
52575;DHT22;38468;48.114;-1.684;2022-12-18T02:43:14;-3275.30;78.90
52575;DHT22;38468;48.114;-1.684;2022-12-18T02:45:16;-3275.30;79.00
52575;DHT22;38468;48.114;-1.684;2022-12-18T02:47:18;-3275.30;79.10
52575;DHT22;38468;48.114;-1.684;2022-12-18T02:54:33;-3275.40;79.00
52575;DHT22;38468;48.114;-1.684;2022-12-18T02:56:50;-3275.40;79.00
52575;DHT22;38468;48.114;-1.684;2022-12-18T03:01:15;-3275.20;79.30
52575;DHT22;38468;48.114;-1.684;2022-12-18T03:03:26;-3275.30;79.50
52575;DHT22;38468;48.114;-1.684;2022-12-18T03:07:56;-3275.40;79.20
52575;DHT22;38468;48.114;-1.684;2022-12-18T03:09:58;-3275.40;78.90
52575;DHT22;38468;48.114;-1.684;2022-12-18T03:14:26;-3275.50;78.80
52575;DHT22;38468;48.114;-1.684;2022-12-18T03:16:31;-3275.50;78.80
52575;DHT22;38468;48.114;-1.684;2022-12-18T03:18:40;-3275.50;78.80
52575;DHT22;38468;48.114;-1.684;2022-12-18T03:20:44;-3275.30;78.80
52575;DHT22;38468;48.114;-1.684;2022-12-18T03:22:49;-3275.30;79.20
52575;DHT22;38468;48.114;-1.684;2022-12-18T03:24:51;-3275.30;79.10
52575;DHT22;38468;48.114;-1.684;2022-12-18T03:26:56;-3275.30;79.20
52575;DHT22;38468;48.114;-1.684;2022-12-18T03:30:03;-3275.30;79.30
52575;DHT22;38468;48.114;-1.684;2022-12-18T03:31:32;-3275.40;79.30
52575;DHT22;38468;48.114;-1.684;2022-12-18T03:36:06;-3275.40;79.00
52575;DHT22;38468;48.114;-1.684;2022-12-18T03:38:07;-3275.40;79.20
52575;DHT22;38468;48.114;-1.684;2022-12-18T03:40:08;-3275.40;79.00
52575;DHT22;38468;48.114;-1.684;2022-12-18T03:50:08;-3275.60;78.90
52575;DHT22;38468;48.114;-1.684;2022-12-18T03:52:19;-3275.70;78.50
52575;DHT22;38468;48.114;-1.684;2022-12-18T03:54:21;-3275.60;78.50
52575;DHT22;38468;48.114;-1.684;2022-12-18T03:56:25;-3275.60;78.50
52575;DHT22;38468;48.114;-1.684;2022-12-18T03:58:26;-3275.60;78.50
52575;DHT22;38468;48.114;-1.684;2022-12-18T04:00:29;-3275.70;78.70
52575;DHT22;38468;48.114;-1.684;2022-12-18T04:02:31;-3275.70;78.50
52575;DHT22;38468;48.114;-1.684;2022-12-18T04:04:34;-3275.70;78.40
52575;DHT22;38468;48.114;-1.684;2022-12-18T04:06:37;-3275.70;78.30
52575;DHT22;38468;48.114;-1.684;2022-12-18T04:08:38;-3275.80;78.30
52575;DHT22;38468;48.114;-1.684;2022-12-18T04:10:40;-3275.70;78.00
52575;DHT22;38468;48.114;-1.684;2022-12-18T04:12:41;-3275.70;78.20
52575;DHT22;38468;48.114;-1.684;2022-12-18T04:14:41;-3275.70;78.30
52575;DHT22;38468;48.114;-1.684;2022-12-18T04:16:42;-3275.80;78.10
52575;DHT22;38468;48.114;-1.684;2022-12-18T04:18:43;-3275.90;78.10
52575;DHT22;38468;48.114;-1.684;2022-12-18T04:20:43;-3275.90;78.10
52575;DHT22;38468;48.114;-1.684;2022-12-18T04:22:44;-3275.80;78.20
52575;DHT22;38468;48.114;-1.684;2022-12-18T04:24:45;-3275.80;78.10
52575;DHT22;38468;48.114;-1.684;2022-12-18T04:26:46;-3275.90;78.00
52575;DHT22;38468;48.114;-1.684;2022-12-18T04:28:47;-3275.80;78.10
52575;DHT22;38468;48.114;-1.684;2022-12-18T04:30:47;-3275.80;77.90
52575;DHT22;38468;48.114;-1.684;2022-12-18T04:32:48;-3275.80;78.20
52575;DHT22;38468;48.114;-1.684;2022-12-18T04:34:48;-3275.80;78.10
52575;DHT22;38468;48.114;-1.684;2022-12-18T04:36:49;-3275.90;78.20
52575;DHT22;38468;48.114;-1.684;2022-12-18T04:38:50;-3276.00;78.10
52575;DHT22;38468;48.114;-1.684;2022-12-18T04:40:50;-3276.00;78.00
52575;DHT22;38468;48.114;-1.684;2022-12-18T04:42:51;-3275.90;78.00
52575;DHT22;38468;48.114;-1.684;2022-12-18T04:44:52;-3275.80;78.00
52575;DHT22;38468;48.114;-1.684;2022-12-18T04:46:52;-3275.90;78.30
52575;DHT22;38468;48.114;-1.684;2022-12-18T04:48:53;-3275.90;78.00
52575;DHT22;38468;48.114;-1.684;2022-12-18T04:50:53;-3275.90;78.00
52575;DHT22;38468;48.114;-1.684;2022-12-18T04:52:54;-3276.00;78.30
52575;DHT22;38468;48.114;-1.684;2022-12-18T04:54:55;-3276.10;78.00
52575;DHT22;38468;48.114;-1.684;2022-12-18T04:56:56;-3276.10;77.60
52575;DHT22;38468;48.114;-1.684;2022-12-18T04:58:56;-3276.10;77.90
52575;DHT22;38468;48.114;-1.684;2022-12-18T05:00:57;-3276.10;77.80
52575;DHT22;38468;48.114;-1.684;2022-12-18T05:03:01;-3276.10;77.50
52575;DHT22;38468;48.114;-1.684;2022-12-18T05:05:02;-3276.10;77.90
52575;DHT22;38468;48.114;-1.684;2022-12-18T05:07:03;-3276.10;77.90
52575;DHT22;38468;48.114;-1.684;2022-12-18T05:09:04;-3276.20;77.60
52575;DHT22;38468;48.114;-1.684;2022-12-18T05:11:07;-3276.00;77.90
52575;DHT22;38468;48.114;-1.684;2022-12-18T05:13:08;-3276.20;78.10
52575;DHT22;38468;48.114;-1.684;2022-12-18T05:15:09;-3276.30;77.80
52575;DHT22;38468;48.114;-1.684;2022-12-18T05:17:09;-3276.30;77.70
52575;DHT22;38468;48.114;-1.684;2022-12-18T05:19:10;-3276.30;77.40
52575;DHT22;38468;48.114;-1.684;2022-12-18T05:21:11;-3276.30;77.60
52575;DHT22;38468;48.114;-1.684;2022-12-18T05:23:11;-3276.20;77.70
52575;DHT22;38468;48.114;-1.684;2022-12-18T05:25:12;-3276.20;77.90
52575;DHT22;38468;48.114;-1.684;2022-12-18T05:27:13;-3276.20;77.70
52575;DHT22;38468;48.114;-1.684;2022-12-18T05:29:13;-3276.10;78.10
52575;DHT22;38468;48.114;-1.684;2022-12-18T05:31:14;-3276.20;78.00
52575;DHT22;38468;48.114;-1.684;2022-12-18T05:33:15;-3276.30;78.10
52575;DHT22;38468;48.114;-1.684;2022-12-18T05:35:16;-3276.20;78.10
52575;DHT22;38468;48.114;-1.684;2022-12-18T05:37:17;-3276.10;78.10
52575;DHT22;38468;48.114;-1.684;2022-12-18T05:39:17;-3276.10;78.30
52575;DHT22;38468;48.114;-1.684;2022-12-18T05:41:18;-3276.20;78.30
52575;DHT22;38468;48.114;-1.684;2022-12-18T05:43:20;-3276.20;78.50
52575;DHT22;38468;48.114;-1.684;2022-12-18T05:45:22;-3276.30;78.30
52575;DHT22;38468;48.114;-1.684;2022-12-18T05:47:22;-3276.20;78.20
52575;DHT22;38468;48.114;-1.684;2022-12-18T05:49:23;-3276.30;78.30
52575;DHT22;38468;48.114;-1.684;2022-12-18T05:51:24;-3276.20;78.40
52575;DHT22;38468;48.114;-1.684;2022-12-18T05:53:24;-3276.30;78.50
52575;DHT22;38468;48.114;-1.684;2022-12-18T05:55:25;-3276.20;78.30
52575;DHT22;38468;48.114;-1.684;2022-12-18T05:57:26;-3276.20;78.70
52575;DHT22;38468;48.114;-1.684;2022-12-18T05:59:27;-3276.20;78.60
52575;DHT22;38468;48.114;-1.684;2022-12-18T06:01:27;-3276.20;78.90
52575;DHT22;38468;48.114;-1.684;2022-12-18T06:03:28;-3276.20;78.70
52575;DHT22;38468;48.114;-1.684;2022-12-18T06:05:29;-3276.30;78.80
52575;DHT22;38468;48.114;-1.684;2022-12-18T06:07:34;-3276.40;78.60
52575;DHT22;38468;48.114;-1.684;2022-12-18T06:09:35;-3276.40;78.40
52575;DHT22;38468;48.114;-1.684;2022-12-18T06:11:36;-3276.40;78.50
52575;DHT22;38468;48.114;-1.684;2022-12-18T06:13:37;-3276.30;78.70
52575;DHT22;38468;48.114;-1.684;2022-12-18T06:15:38;-3276.30;79.00
52575;DHT22;38468;48.114;-1.684;2022-12-18T06:17:39;-3276.40;78.80
52575;DHT22;38468;48.114;-1.684;2022-12-18T06:19:39;-3276.50;78.80
52575;DHT22;38468;48.114;-1.684;2022-12-18T06:21:40;-3276.50;79.00
52575;DHT22;38468;48.114;-1.684;2022-12-18T06:23:41;-3276.60;78.70
52575;DHT22;38468;48.114;-1.684;2022-12-18T06:25:42;-3276.60;78.70
52575;DHT22;38468;48.114;-1.684;2022-12-18T06:27:43;-3276.50;78.90
52575;DHT22;38468;48.114;-1.684;2022-12-18T06:29:43;-3276.50;79.40
52575;DHT22;38468;48.114;-1.684;2022-12-18T06:31:44;-3276.50;79.30
52575;DHT22;38468;48.114;-1.684;2022-12-18T06:33:44;-3276.60;79.20
52575;DHT22;38468;48.114;-1.684;2022-12-18T06:35:45;-3276.70;79.10
52575;DHT22;38468;48.114;-1.684;2022-12-18T06:37:46;-3276.60;79.20
52575;DHT22;38468;48.114;-1.684;2022-12-18T06:39:46;-3276.70;79.30
52575;DHT22;38468;48.114;-1.684;2022-12-18T06:41:47;-3276.70;79.30
52575;DHT22;38468;48.114;-1.684;2022-12-18T06:43:48;-3276.70;79.20
52575;DHT22;38468;48.114;-1.684;2022-12-18T06:45:48;-3276.70;79.40
52575;DHT22;38468;48.114;-1.684;2022-12-18T06:47:53;-3276.70;79.60
52575;DHT22;38468;48.114;-1.684;2022-12-18T06:49:57;0.00;79.50
52575;DHT22;38468;48.114;-1.684;2022-12-18T06:51:57;0.00;79.40
52575;DHT22;38468;48.114;-1.684;2022-12-18T06:53:58;0.10;79.40
52575;DHT22;38468;48.114;-1.684;2022-12-18T06:56:06;0.00;79.70
52575;DHT22;38468;48.114;-1.684;2022-12-18T06:58:07;0.00;79.80
52575;DHT22;38468;48.114;-1.684;2022-12-18T07:00:08;0.00;80.00
52575;DHT22;38468;48.114;-1.684;2022-12-18T07:02:11;0.00;80.30
52575;DHT22;38468;48.114;-1.684;2022-12-18T07:04:12;0.00;80.50
52575;DHT22;38468;48.114;-1.684;2022-12-18T07:06:19;0.00;80.60
52575;DHT22;38468;48.114;-1.684;2022-12-18T07:08:20;0.00;80.90
52575;DHT22;38468;48.114;-1.684;2022-12-18T07:10:20;0.00;81.00
52575;DHT22;38468;48.114;-1.684;2022-12-18T07:12:21;0.10;81.00
52575;DHT22;38468;48.114;-1.684;2022-12-18T07:14:22;0.10;80.80
52575;DHT22;38468;48.114;-1.684;2022-12-18T07:16:22;0.10;80.90
52575;DHT22;38468;48.114;-1.684;2022-12-18T07:18:23;0.10;81.20
52575;DHT22;38468;48.114;-1.684;2022-12-18T07:20:24;0.00;81.30
52575;DHT22;38468;48.114;-1.684;2022-12-18T07:22:27;0.10;81.50
52575;DHT22;38468;48.114;-1.684;2022-12-18T07:24:28;0.10;81.50
52575;DHT22;38468;48.114;-1.684;2022-12-18T07:26:28;0.10;81.50
52575;DHT22;38468;48.114;-1.684;2022-12-18T07:28:30;0.10;81.70
52575;DHT22;38468;48.114;-1.684;2022-12-18T07:30:31;0.10;81.70
52575;DHT22;38468;48.114;-1.684;2022-12-18T07:32:31;0.10;81.80
52575;DHT22;38468;48.114;-1.684;2022-12-18T07:34:32;0.20;81.90
52575;DHT22;38468;48.114;-1.684;2022-12-18T07:36:33;0.20;81.80
52575;DHT22;38468;48.114;-1.684;2022-12-18T07:38:34;0.30;81.60
52575;DHT22;38468;48.114;-1.684;2022-12-18T07:40:35;0.30;82.10
52575;DHT22;38468;48.114;-1.684;2022-12-18T07:42:36;0.30;82.20
52575;DHT22;38468;48.114;-1.684;2022-12-18T07:44:37;0.30;82.50
52575;DHT22;38468;48.114;-1.684;2022-12-18T07:46:38;0.30;82.60
52575;DHT22;38468;48.114;-1.684;2022-12-18T07:48:40;0.30;82.60
52575;DHT22;38468;48.114;-1.684;2022-12-18T07:50:40;0.40;82.60
52575;DHT22;38468;48.114;-1.684;2022-12-18T07:52:41;0.40;82.30
52575;DHT22;38468;48.114;-1.684;2022-12-18T07:54:42;0.40;82.70
52575;DHT22;38468;48.114;-1.684;2022-12-18T07:56:42;0.40;83.00
52575;DHT22;38468;48.114;-1.684;2022-12-18T07:58:43;0.40;83.10
52575;DHT22;38468;48.114;-1.684;2022-12-18T08:00:44;0.40;83.40
52575;DHT22;38468;48.114;-1.684;2022-12-18T08:02:45;0.40;83.80
52575;DHT22;38468;48.114;-1.684;2022-12-18T08:04:46;0.40;84.00
52575;DHT22;38468;48.114;-1.684;2022-12-18T08:06:46;0.50;83.70
52575;DHT22;38468;48.114;-1.684;2022-12-18T08:08:47;0.60;83.70
52575;DHT22;38468;48.114;-1.684;2022-12-18T08:10:48;0.60;83.50
52575;DHT22;38468;48.114;-1.684;2022-12-18T08:12:50;0.60;83.50
52575;DHT22;38468;48.114;-1.684;2022-12-18T08:14:51;0.70;83.50
52575;DHT22;38468;48.114;-1.684;2022-12-18T08:16:51;0.70;83.50
52575;DHT22;38468;48.114;-1.684;2022-12-18T08:18:53;0.60;83.90
52575;DHT22;38468;48.114;-1.684;2022-12-18T08:20:54;0.70;84.20
52575;DHT22;38468;48.114;-1.684;2022-12-18T08:22:55;0.70;84.10
52575;DHT22;38468;48.114;-1.684;2022-12-18T08:24:58;0.70;84.20
52575;DHT22;38468;48.114;-1.684;2022-12-18T08:26:58;0.80;84.20
52575;DHT22;38468;48.114;-1.684;2022-12-18T08:29:00;0.80;84.30
52575;DHT22;38468;48.114;-1.684;2022-12-18T08:31:01;0.80;84.40
52575;DHT22;38468;48.114;-1.684;2022-12-18T08:33:02;0.80;84.50
52575;DHT22;38468;48.114;-1.684;2022-12-18T08:35:03;0.90;84.50
52575;DHT22;38468;48.114;-1.684;2022-12-18T08:37:04;0.90;84.30
52575;DHT22;38468;48.114;-1.684;2022-12-18T08:39:05;0.90;84.40
52575;DHT22;38468;48.114;-1.684;2022-12-18T08:41:08;1.00;84.50
52575;DHT22;38468;48.114;-1.684;2022-12-18T08:43:12;0.90;84.70
52575;DHT22;38468;48.114;-1.684;2022-12-18T08:45:31;0.90;84.90
52575;DHT22;38468;48.114;-1.684;2022-12-18T08:47:31;1.00;84.80
52575;DHT22;38468;48.114;-1.684;2022-12-18T08:49:33;1.10;84.70
52575;DHT22;38468;48.114;-1.684;2022-12-18T08:51:34;1.00;85.10
52575;DHT22;38468;48.114;-1.684;2022-12-18T08:53:37;1.00;85.60
52575;DHT22;38468;48.114;-1.684;2022-12-18T08:55:38;1.00;85.70
52575;DHT22;38468;48.114;-1.684;2022-12-18T08:57:39;1.10;85.50
52575;DHT22;38468;48.114;-1.684;2022-12-18T08:59:40;1.20;85.40
52575;DHT22;38468;48.114;-1.684;2022-12-18T09:01:40;1.10;85.60
52575;DHT22;38468;48.114;-1.684;2022-12-18T09:03:41;1.20;85.70
52575;DHT22;38468;48.114;-1.684;2022-12-18T09:05:42;1.30;85.40
52575;DHT22;38468;48.114;-1.684;2022-12-18T09:07:43;1.30;85.50
52575;DHT22;38468;48.114;-1.684;2022-12-18T09:09:44;1.20;85.80
52575;DHT22;38468;48.114;-1.684;2022-12-18T09:11:44;1.30;85.70
52575;DHT22;38468;48.114;-1.684;2022-12-18T09:13:45;1.40;85.70
52575;DHT22;38468;48.114;-1.684;2022-12-18T09:15:48;1.40;85.60
52575;DHT22;38468;48.114;-1.684;2022-12-18T09:17:49;1.40;85.80
52575;DHT22;38468;48.114;-1.684;2022-12-18T09:19:50;1.40;85.80
52575;DHT22;38468;48.114;-1.684;2022-12-18T09:21:51;1.40;86.00
52575;DHT22;38468;48.114;-1.684;2022-12-18T09:23:53;1.40;85.80
52575;DHT22;38468;48.114;-1.684;2022-12-18T09:25:58;1.40;85.90
52575;DHT22;38468;48.114;-1.684;2022-12-18T09:28:03;1.40;86.10
52575;DHT22;38468;48.114;-1.684;2022-12-18T09:30:05;1.40;86.30
52575;DHT22;38468;48.114;-1.684;2022-12-18T09:32:05;1.40;86.30
52575;DHT22;38468;48.114;-1.684;2022-12-18T09:34:07;1.40;86.60
52575;DHT22;38468;48.114;-1.684;2022-12-18T09:36:09;1.40;86.50
52575;DHT22;38468;48.114;-1.684;2022-12-18T09:38:16;1.40;86.40
52575;DHT22;38468;48.114;-1.684;2022-12-18T09:40:20;1.50;86.30
52575;DHT22;38468;48.114;-1.684;2022-12-18T09:42:22;1.40;86.60
52575;DHT22;38468;48.114;-1.684;2022-12-18T09:44:35;1.40;86.70
52575;DHT22;38468;48.114;-1.684;2022-12-18T09:46:46;1.40;86.80
52575;DHT22;38468;48.114;-1.684;2022-12-18T09:48:56;1.40;87.00
52575;DHT22;38468;48.114;-1.684;2022-12-18T09:51:03;1.50;87.10
52575;DHT22;38468;48.114;-1.684;2022-12-18T09:53:13;1.50;86.90
52575;DHT22;38468;48.114;-1.684;2022-12-18T09:55:40;1.60;86.80
52575;DHT22;38468;48.114;-1.684;2022-12-18T09:57:47;1.60;86.80
52575;DHT22;38468;48.114;-1.684;2022-12-18T09:59:56;1.60;86.60
52575;DHT22;38468;48.114;-1.684;2022-12-18T10:01:58;1.60;86.70
52575;DHT22;38468;48.114;-1.684;2022-12-18T10:03:59;1.70;86.70
52575;DHT22;38468;48.114;-1.684;2022-12-18T10:08:15;1.70;86.60
52575;DHT22;38468;48.114;-1.684;2022-12-18T10:10:38;1.70;86.80
52575;DHT22;38468;48.114;-1.684;2022-12-18T10:19:54;1.70;87.20
52575;DHT22;38468;48.114;-1.684;2022-12-18T10:24:31;1.90;87.10
52575;DHT22;38468;48.114;-1.684;2022-12-18T10:26:34;1.80;87.20
52575;DHT22;38468;48.114;-1.684;2022-12-18T10:28:37;1.90;87.20
52575;DHT22;38468;48.114;-1.684;2022-12-18T10:30:41;1.90;87.20
52575;DHT22;38468;48.114;-1.684;2022-12-18T10:32:42;1.90;87.30
52575;DHT22;38468;48.114;-1.684;2022-12-18T10:34:46;1.90;87.30
52575;DHT22;38468;48.114;-1.684;2022-12-18T10:36:47;1.90;87.40
52575;DHT22;38468;48.114;-1.684;2022-12-18T10:38:50;1.90;87.70
52575;DHT22;38468;48.114;-1.684;2022-12-18T10:43:14;1.90;87.90
52575;DHT22;38468;48.114;-1.684;2022-12-18T10:45:19;1.90;87.80
52575;DHT22;38468;48.114;-1.684;2022-12-18T10:47:25;1.90;87.80
52575;DHT22;38468;48.114;-1.684;2022-12-18T10:49:31;2.00;87.80
52575;DHT22;38468;48.114;-1.684;2022-12-18T10:51:35;1.90;87.90
52575;DHT22;38468;48.114;-1.684;2022-12-18T10:53:37;1.90;87.90
52575;DHT22;38468;48.114;-1.684;2022-12-18T10:55:39;2.00;88.00
52575;DHT22;38468;48.114;-1.684;2022-12-18T10:57:47;2.00;87.90
52575;DHT22;38468;48.114;-1.684;2022-12-18T10:59:56;2.10;87.60
52575;DHT22;38468;48.114;-1.684;2022-12-18T11:01:58;2.00;87.60
52575;DHT22;38468;48.114;-1.684;2022-12-18T11:04:02;2.00;87.60
52575;DHT22;38468;48.114;-1.684;2022-12-18T11:08:20;2.10;87.80
52575;DHT22;38468;48.114;-1.684;2022-12-18T11:10:31;2.10;87.80
52575;DHT22;38468;48.114;-1.684;2022-12-18T11:12:35;2.10;87.80
52575;DHT22;38468;48.114;-1.684;2022-12-18T11:14:47;2.10;87.70
52575;DHT22;38468;48.114;-1.684;2022-12-18T11:16:51;2.10;87.70
52575;DHT22;38468;48.114;-1.684;2022-12-18T11:18:52;2.20;87.70
52575;DHT22;38468;48.114;-1.684;2022-12-18T11:21:00;2.20;87.80
52575;DHT22;38468;48.114;-1.684;2022-12-18T11:23:12;2.30;87.90
52575;DHT22;38468;48.114;-1.684;2022-12-18T11:27:17;2.30;87.80
52575;DHT22;38468;48.114;-1.684;2022-12-18T11:29:26;2.30;87.80
52575;DHT22;38468;48.114;-1.684;2022-12-18T11:31:28;2.30;87.70
52575;DHT22;38468;48.114;-1.684;2022-12-18T11:33:31;2.40;87.70
52575;DHT22;38468;48.114;-1.684;2022-12-18T11:37:53;2.40;87.70
52575;DHT22;38468;48.114;-1.684;2022-12-18T11:40:06;2.40;87.70
52575;DHT22;38468;48.114;-1.684;2022-12-18T11:44:15;2.40;87.80
52575;DHT22;38468;48.114;-1.684;2022-12-18T11:46:47;2.50;87.90
52575;DHT22;38468;48.114;-1.684;2022-12-18T11:49:03;2.50;88.00
52575;DHT22;38468;48.114;-1.684;2022-12-18T11:51:16;2.50;87.90
52575;DHT22;38468;48.114;-1.684;2022-12-18T11:53:27;2.60;88.10
52575;DHT22;38468;48.114;-1.684;2022-12-18T11:55:35;2.60;88.00
52575;DHT22;38468;48.114;-1.684;2022-12-18T11:58:07;2.60;88.10
52575;DHT22;38468;48.114;-1.684;2022-12-18T12:00:13;2.60;88.20
52575;DHT22;38468;48.114;-1.684;2022-12-18T12:09:10;2.80;88.40
52575;DHT22;38468;48.114;-1.684;2022-12-18T12:13:55;2.90;88.50
52575;DHT22;38468;48.114;-1.684;2022-12-18T12:16:16;2.90;88.40
52575;DHT22;38468;48.114;-1.684;2022-12-18T12:27:55;3.00;88.20
52575;DHT22;38468;48.114;-1.684;2022-12-18T12:30:07;3.10;88.10
52575;DHT22;38468;48.114;-1.684;2022-12-18T12:40:45;3.10;88.20
52575;DHT22;38468;48.114;-1.684;2022-12-18T12:42:58;3.10;88.10
52575;DHT22;38468;48.114;-1.684;2022-12-18T12:45:21;3.20;88.10
52575;DHT22;38468;48.114;-1.684;2022-12-18T12:47:26;3.20;88.00
52575;DHT22;38468;48.114;-1.684;2022-12-18T12:49:31;3.20;88.10
52575;DHT22;38468;48.114;-1.684;2022-12-18T12:51:38;3.20;88.20
52575;DHT22;38468;48.114;-1.684;2022-12-18T12:53:41;3.30;88.10
52575;DHT22;38468;48.114;-1.684;2022-12-18T12:55:42;3.30;88.00
52575;DHT22;38468;48.114;-1.684;2022-12-18T12:57:48;3.30;88.10
52575;DHT22;38468;48.114;-1.684;2022-12-18T13:02:37;3.40;88.10
52575;DHT22;38468;48.114;-1.684;2022-12-18T13:07:17;3.40;88.10
52575;DHT22;38468;48.114;-1.684;2022-12-18T13:09:20;3.60;87.90
52575;DHT22;38468;48.114;-1.684;2022-12-18T13:13:55;3.60;87.80
52575;DHT22;38468;48.114;-1.684;2022-12-18T13:16:07;3.50;87.70
52575;DHT22;38468;48.114;-1.684;2022-12-18T13:20:11;3.60;87.80
52575;DHT22;38468;48.114;-1.684;2022-12-18T13:22:34;3.70;87.80
52575;DHT22;38468;48.114;-1.684;2022-12-18T13:24:35;3.70;87.70
52575;DHT22;38468;48.114;-1.684;2022-12-18T13:26:35;3.70;87.80
52575;DHT22;38468;48.114;-1.684;2022-12-18T13:30:56;3.70;87.80
52575;DHT22;38468;48.114;-1.684;2022-12-18T13:39:54;3.80;87.80
52575;DHT22;38468;48.114;-1.684;2022-12-18T13:44:40;3.80;87.80
52575;DHT22;38468;48.114;-1.684;2022-12-18T13:46:44;3.90;87.70
52575;DHT22;38468;48.114;-1.684;2022-12-18T13:51:03;3.90;87.50
52575;DHT22;38468;48.114;-1.684;2022-12-18T13:53:05;3.90;87.50
52575;DHT22;38468;48.114;-1.684;2022-12-18T13:55:14;3.90;87.40
52575;DHT22;38468;48.114;-1.684;2022-12-18T13:57:35;4.00;87.50
52575;DHT22;38468;48.114;-1.684;2022-12-18T13:59:39;4.00;87.40
52575;DHT22;38468;48.114;-1.684;2022-12-18T14:01:57;3.90;87.40
52575;DHT22;38468;48.114;-1.684;2022-12-18T14:04:16;4.00;87.60
52575;DHT22;38468;48.114;-1.684;2022-12-18T14:06:18;4.00;87.80
52575;DHT22;38468;48.114;-1.684;2022-12-18T14:08:19;4.00;88.00
52575;DHT22;38468;48.114;-1.684;2022-12-18T14:10:21;4.00;88.10
52575;DHT22;38468;48.114;-1.684;2022-12-18T14:14:47;4.10;88.20
52575;DHT22;38468;48.114;-1.684;2022-12-18T14:16:49;4.20;88.30
52575;DHT22;38468;48.114;-1.684;2022-12-18T14:18:56;4.20;88.30
52575;DHT22;38468;48.114;-1.684;2022-12-18T14:21:00;4.30;88.80
52575;DHT22;38468;48.114;-1.684;2022-12-18T14:23:02;4.40;88.80
52575;DHT22;38468;48.114;-1.684;2022-12-18T14:25:18;4.40;88.90
52575;DHT22;38468;48.114;-1.684;2022-12-18T14:27:25;4.50;89.00
52575;DHT22;38468;48.114;-1.684;2022-12-18T14:29:28;4.60;89.00
52575;DHT22;38468;48.114;-1.684;2022-12-18T14:31:30;4.60;89.00